HEBA

Borg El Arab International Airport

Alexandria, Egypt
METAR HEBA 190400Z 00000KT 9999 FEW020 24/22 Q1012 NOSIG
Observed Flight Rules
Sep-19 @ 04:00 UTC (an hour ago) Visual Flight Rules
Visibility Clouds
10,000+ meters
  • Few at 2,000' AGL
Temperatures Readings
Current 24°C / 75°F
Dewpoint 22°C / 72°F
Humidity 89%
Altimeter 29.88" Hg
Pressure 1012 hPa
Elevation 54
METAR HEBA 190400Z 00000KT 9999 FEW020 24/22 Q1012 NOSIG
Observed Flight Rules
Sep-19 @ 04:00 UTC
(an hour ago)
VFR
Clouds
  • Few at 2,000' AGL
Temperature Dewpoint
24°C / 75°F 22°C / 72°F
Humidity Altimeter Pressure
89% 29.88" Hg 1012 hPa